createdAt,value
2022-09-25T00:01:01.091Z,101131.25
2022-09-25T00:03:30.600Z,101139.66
2022-09-25T00:06:06.609Z,101132.25
2022-09-25T00:08:36.766Z,101138.16
2022-09-25T00:11:08.569Z,101147.06
2022-09-25T00:13:36.993Z,101142.91
2022-09-25T00:16:05.082Z,101144.75
2022-09-25T00:18:49.896Z,101145.06
2022-09-25T00:21:18.462Z,101151.47
2022-09-25T00:23:48.122Z,101144.06
2022-09-25T00:26:17.558Z,101145.19
2022-09-25T00:28:45.444Z,101140.06
2022-09-25T00:31:19.945Z,101138.53
2022-09-25T00:33:47.750Z,101134.53
2022-09-25T00:36:15.564Z,101137.38
2022-09-25T00:38:43.377Z,101142.41
2022-09-25T00:41:12.965Z,101139.84
2022-09-25T00:43:44.556Z,101143.09
2022-09-25T00:46:16.097Z,101137.47
2022-09-25T00:48:52.653Z,101141.47
2022-09-25T00:51:29.076Z,101140.81
2022-09-25T00:54:02.675Z,101137.88
2022-09-25T00:56:37.425Z,101138.53
2022-09-25T00:59:06.318Z,101149.34
2022-09-25T01:01:34.096Z,101146.13
2022-09-25T01:04:02.757Z,101155.59
2022-09-25T01:06:31.194Z,101151.75
2022-09-25T01:09:00.300Z,101150.94
2022-09-25T01:11:28.231Z,101147.41
2022-09-25T01:13:59.554Z,101143.53
2022-09-25T01:16:35.558Z,101144.00
2022-09-25T01:19:16.351Z,101149.13
2022-09-25T01:21:51.350Z,101149.13
2022-09-25T01:24:40.956Z,101153.94
2022-09-25T01:27:41.842Z,101151.06
2022-09-25T01:30:13.838Z,101151.31
2022-09-25T01:32:55.304Z,101154.28
2022-09-25T01:35:34.463Z,101141.53
2022-09-25T01:38:10.380Z,101139.94
2022-09-25T01:40:43.469Z,101148.47
2022-09-25T01:43:14.901Z,101155.88
2022-09-25T01:45:48.124Z,101151.31
2022-09-25T01:48:19.509Z,101154.19
2022-09-25T01:50:52.010Z,101155.00
2022-09-25T01:53:24.738Z,101149.97
2022-09-25T01:55:57.816Z,101156.78
2022-09-25T01:58:31.682Z,101159.31
2022-09-25T02:01:06.440Z,101153.84
2022-09-25T02:03:40.992Z,101150.66
2022-09-25T02:06:11.115Z,101147.47
2022-09-25T02:08:44.218Z,101148.13
2022-09-25T02:11:14.295Z,101149.72
2022-09-25T02:13:49.144Z,101144.25
2022-09-25T02:16:27.274Z,101154.28
2022-09-25T02:19:12.097Z,101154.28
2022-09-25T02:21:46.821Z,101153.94
2022-09-25T02:24:21.849Z,101152.00
2022-09-25T02:26:51.292Z,101161.69
2022-09-25T02:29:19.909Z,101156.06
2022-09-25T02:31:51.293Z,101168.13
2022-09-25T02:34:19.331Z,101148.41
2022-09-25T02:36:47.257Z,101160.13
2022-09-25T02:39:18.471Z,101160.66
2022-09-25T02:41:58.113Z,101159.06
2022-09-25T02:44:37.352Z,101159.41
2022-09-25T02:47:20.860Z,101164.41
2022-09-25T02:49:55.704Z,101160.19
2022-09-25T02:52:33.113Z,101164.72
2022-09-25T02:55:07.996Z,101167.78
2022-09-25T02:57:44.000Z,101160.25
2022-09-25T03:00:14.001Z,101155.94
2022-09-25T03:02:49.759Z,101154.81
2022-09-25T03:05:21.601Z,101155.44
2022-09-25T03:08:07.262Z,101153.84
2022-09-25T03:10:37.897Z,101162.53
2022-09-25T03:13:19.934Z,101161.59
2022-09-25T03:15:51.931Z,101167.44
2022-09-25T03:18:21.930Z,101158.75
2022-09-25T03:20:49.653Z,101166.97
2022-09-25T03:23:17.396Z,101162.63
2022-09-25T03:25:49.879Z,101163.59
2022-09-25T03:28:18.269Z,101158.75
2022-09-25T03:30:46.096Z,101155.56
2022-09-25T03:33:14.309Z,101161.72
2022-09-25T03:35:43.426Z,101157.84
2022-09-25T03:38:12.498Z,101150.78
2022-09-25T03:40:41.404Z,101151.88
2022-09-25T03:45:35.861Z,101155.13
2022-09-25T03:48:03.644Z,101152.38
2022-09-25T03:50:31.373Z,101150.13
2022-09-25T03:53:00.455Z,101151.25
2022-09-25T03:55:28.284Z,101149.44
2022-09-25T03:57:57.165Z,101151.19
2022-09-25T04:00:24.953Z,101151.34
2022-09-25T04:02:52.764Z,101157.91
2022-09-25T04:05:21.366Z,101150.50
2022-09-25T04:07:49.133Z,101145.88
2022-09-25T04:10:18.393Z,101145.66
2022-09-25T04:12:46.155Z,101137.00
2022-09-25T04:15:13.918Z,101149.88
2022-09-25T04:17:42.749Z,101144.78
2022-09-25T04:20:10.986Z,101146.25
2022-09-25T04:22:38.715Z,101144.78
2022-09-25T04:25:07.617Z,101143.97
2022-09-25T04:27:37.801Z,101148.34
2022-09-25T04:30:06.693Z,101149.25
2022-09-25T04:32:52.010Z,101147.47
2022-09-25T04:35:19.766Z,101151.34
2022-09-25T04:37:47.581Z,101147.84
2022-09-25T04:40:15.363Z,101148.50
2022-09-25T04:42:44.518Z,101141.47
2022-09-25T04:45:12.380Z,101136.78
2022-09-25T04:47:40.119Z,101148.50
2022-09-25T04:50:08.906Z,101143.56
2022-09-25T04:52:36.673Z,101145.03
2022-09-25T04:55:04.666Z,101143.13
2022-09-25T04:57:57.281Z,101148.25
2022-09-25T05:00:22.374Z,101151.31
2022-09-25T05:02:50.251Z,101152.75
2022-09-25T05:05:19.173Z,101148.56
2022-09-25T05:07:54.202Z,101153.56
2022-09-25T05:10:22.108Z,101158.41
2022-09-25T05:12:55.228Z,101157.59
2022-09-25T05:15:24.366Z,101152.16
2022-09-25T05:17:53.544Z,101149.94
2022-09-25T05:20:21.288Z,101152.53
2022-09-25T05:22:49.071Z,101160.72
2022-09-25T05:25:16.926Z,101156.41
2022-09-25T05:27:44.763Z,101155.44
2022-09-25T05:30:13.095Z,101150.66
2022-09-25T05:32:49.430Z,101160.31
2022-09-25T05:35:18.507Z,101155.66
2022-09-25T05:37:46.296Z,101156.31
2022-09-25T05:40:16.499Z,101161.63
2022-09-25T05:42:45.106Z,101157.16
2022-09-25T05:45:13.394Z,101162.91
2022-09-25T05:47:43.516Z,101159.72
2022-09-25T05:50:13.751Z,101157.16
2022-09-25T05:52:42.167Z,101160.69
2022-09-25T05:55:11.153Z,101151.69
2022-09-25T05:57:39.643Z,101152.38
2022-09-25T06:00:09.804Z,101153.03
2022-09-25T06:02:37.702Z,101161.22
2022-09-25T06:05:08.277Z,101163.44
2022-09-25T06:07:36.080Z,101166.16
2022-09-25T06:10:03.979Z,101165.38
2022-09-25T06:12:32.422Z,101167.47
2022-09-25T06:15:00.774Z,101169.72
2022-09-25T06:17:30.489Z,101162.84
2022-09-25T06:19:58.231Z,101168.94
2022-09-25T06:22:27.349Z,101167.34
2022-09-25T06:24:55.091Z,101166.84
2022-09-25T06:27:23.378Z,101167.97
2022-09-25T06:29:51.181Z,101168.16
2022-09-25T06:32:18.910Z,101168.81
2022-09-25T06:34:47.013Z,101171.53
2022-09-25T06:37:14.793Z,101176.97
2022-09-25T06:39:43.914Z,101171.84
2022-09-25T06:42:11.702Z,101176.97
2022-09-25T06:44:39.533Z,101173.63
2022-09-25T06:47:07.314Z,101175.69
2022-09-25T06:49:35.188Z,101179.38
2022-09-25T06:52:03.018Z,101174.88
2022-09-25T06:54:31.661Z,101186.88
2022-09-25T06:57:00.814Z,101188.91
2022-09-25T06:59:28.552Z,101192.06
2022-09-25T07:02:16.402Z,101194.53
2022-09-25T07:04:43.155Z,101193.19
2022-09-25T07:07:10.935Z,101191.63
2022-09-25T07:09:38.699Z,101187.44
2022-09-25T07:12:08.030Z,101187.47
2022-09-25T07:14:35.842Z,101187.31
2022-09-25T07:17:03.620Z,101181.56
2022-09-25T07:19:31.383Z,101178.88
2022-09-25T07:21:59.393Z,101185.78
2022-09-25T07:24:27.239Z,101186.16
2022-09-25T07:26:55.035Z,101187.19
2022-09-25T07:29:24.223Z,101193.47
2022-09-25T07:31:52.014Z,101187.69
2022-09-25T07:34:19.778Z,101188.50
2022-09-25T07:36:47.548Z,101195.22
2022-09-25T07:39:18.566Z,101192.59
2022-09-25T07:41:46.730Z,101200.25
2022-09-25T07:44:36.315Z,101200.97
2022-09-25T07:47:05.512Z,101194.16
2022-09-25T07:49:33.575Z,101192.97
2022-09-25T07:52:01.592Z,101194.16
2022-09-25T07:54:32.332Z,101201.31
2022-09-25T07:57:00.069Z,101197.34
2022-09-25T07:59:27.874Z,101196.56
2022-09-25T08:01:55.654Z,101204.53
2022-09-25T08:04:24.869Z,101202.31
2022-09-25T08:06:52.701Z,101202.25
2022-09-25T08:09:20.470Z,101194.63
2022-09-25T08:11:48.232Z,101201.16
2022-09-25T08:14:16.559Z,101193.44
2022-09-25T08:16:44.400Z,101196.72
2022-09-25T08:19:12.434Z,101193.72
2022-09-25T08:21:41.597Z,101190.84
2022-09-25T08:24:21.017Z,101198.84
2022-09-25T08:26:49.963Z,101187.47
2022-09-25T08:29:18.487Z,101190.69
2022-09-25T08:31:46.245Z,101186.72
2022-09-25T08:34:39.353Z,101198.38
2022-09-25T08:37:05.131Z,101187.19
2022-09-25T08:39:32.899Z,101198.84
2022-09-25T08:42:01.920Z,101194.38
2022-09-25T08:44:32.632Z,101200.25
2022-09-25T08:47:22.079Z,101204.38
2022-09-25T08:49:58.306Z,101204.59
2022-09-25T08:52:27.911Z,101207.34
2022-09-25T08:54:55.818Z,101202.41
2022-09-25T08:57:31.678Z,101200.38
2022-09-25T09:00:03.878Z,101203.41
2022-09-25T09:02:39.563Z,101201.81
2022-09-25T09:05:16.604Z,101204.16
2022-09-25T09:07:50.272Z,101188.44
2022-09-25T09:10:28.722Z,101206.78
2022-09-25T09:13:01.784Z,101206.03
2022-09-25T09:15:40.747Z,101195.75
2022-09-25T09:18:20.136Z,101192.56
2022-09-25T09:20:52.766Z,101189.84
2022-09-25T09:23:23.971Z,101198.31
2022-09-25T09:26:03.913Z,101198.19
2022-09-25T09:29:06.991Z,101192.06
2022-09-25T09:31:46.963Z,101184.91
2022-09-25T09:35:00.941Z,101179.44
2022-09-25T09:37:31.834Z,101189.75
2022-09-25T09:40:16.607Z,101182.38
2022-09-25T09:42:53.753Z,101183.91
2022-09-25T09:45:28.239Z,101177.63
2022-09-25T09:48:06.434Z,101179.78
2022-09-25T09:50:45.234Z,101173.56
2022-09-25T09:53:28.214Z,101181.47
2022-09-25T09:56:02.151Z,101170.53
2022-09-25T09:58:38.733Z,101172.03
2022-09-25T10:01:29.098Z,101169.69
2022-09-25T10:04:04.238Z,101174.38
2022-09-25T10:06:36.073Z,101168.66
2022-09-25T10:09:04.272Z,101180.72
2022-09-25T10:11:34.918Z,101175.34
2022-09-25T10:14:05.524Z,101172.06
2022-09-25T10:16:34.415Z,101169.53
2022-09-25T10:19:06.995Z,101173.34
2022-09-25T10:21:41.419Z,101177.63
2022-09-25T10:24:09.218Z,101172.84
2022-09-25T10:26:40.877Z,101168.31
2022-09-25T10:29:27.491Z,101160.84
2022-09-25T10:32:00.909Z,101166.94
2022-09-25T10:34:30.143Z,101165.94
2022-09-25T10:36:58.937Z,101164.69
2022-09-25T10:39:46.393Z,101160.59
2022-09-25T10:42:37.076Z,101175.81
2022-09-25T10:45:27.884Z,101169.84
2022-09-25T10:48:13.119Z,101168.81
2022-09-25T10:50:40.917Z,101172.38
2022-09-25T10:53:28.354Z,101160.94
2022-09-25T10:56:02.843Z,101158.25
2022-09-25T10:58:37.522Z,101158.47
2022-09-25T11:01:09.199Z,101151.66
2022-09-25T11:03:41.174Z,101155.00
2022-09-25T11:06:18.580Z,101150.25
2022-09-25T11:08:46.966Z,101147.91
2022-09-25T11:11:16.759Z,101143.88
2022-09-25T11:13:48.831Z,101149.88
2022-09-25T11:16:17.465Z,101143.47
2022-09-25T11:18:47.100Z,101144.97
2022-09-25T11:21:28.315Z,101145.53
2022-09-25T11:24:08.203Z,101152.66
2022-09-25T11:26:41.780Z,101148.25
2022-09-25T11:29:17.099Z,101151.84
2022-09-25T11:31:51.670Z,101152.38
2022-09-25T11:34:28.953Z,101138.50
2022-09-25T11:37:06.917Z,101139.53
2022-09-25T11:39:59.713Z,101144.88
2022-09-25T11:42:32.481Z,101145.63
2022-09-25T11:45:08.816Z,101144.38
2022-09-25T11:47:43.786Z,101124.13
2022-09-25T11:50:17.145Z,101133.91
2022-09-25T11:52:57.370Z,101131.31
2022-09-25T11:55:47.198Z,101132.72
2022-09-25T11:58:30.255Z,101127.56
2022-09-25T12:01:08.194Z,101122.69
2022-09-25T12:03:54.264Z,101114.94
2022-09-25T12:06:49.094Z,101116.09
2022-09-25T12:09:33.320Z,101116.03
2022-09-25T12:12:08.769Z,101120.66
2022-09-25T12:14:47.120Z,101117.16
2022-09-25T12:17:26.224Z,101114.44
2022-09-25T12:20:02.129Z,101116.34
2022-09-25T12:22:43.555Z,101104.22
2022-09-25T12:25:22.955Z,101109.03
2022-09-25T12:27:58.491Z,101097.28
2022-09-25T12:30:33.295Z,101094.94
2022-09-25T12:33:18.952Z,101089.22
2022-09-25T12:35:54.282Z,101090.28
2022-09-25T12:38:29.089Z,101080.13
2022-09-25T12:41:02.885Z,101093.88
2022-09-25T12:43:36.681Z,101084.75
2022-09-25T12:46:15.104Z,101074.53
2022-09-25T12:48:49.497Z,101065.28
2022-09-25T12:51:25.384Z,101064.94
2022-09-25T12:53:59.542Z,101059.91
2022-09-25T12:56:34.564Z,101061.13
2022-09-25T12:59:10.973Z,101055.16
2022-09-25T13:01:47.022Z,101055.97
2022-09-25T13:04:35.415Z,101063.13
2022-09-25T13:07:10.805Z,101056.78
2022-09-25T13:09:44.024Z,101047.06
2022-09-25T13:12:20.934Z,101053.06
2022-09-25T13:14:53.252Z,101042.91
2022-09-25T13:17:21.464Z,101026.44
2022-09-25T13:19:50.861Z,101035.91
2022-09-25T13:22:21.797Z,101026.44
2022-09-25T13:24:53.887Z,101028.13
2022-09-25T13:27:25.269Z,101035.28
2022-09-25T13:29:59.464Z,101028.97
2022-09-25T13:32:31.861Z,101031.34
2022-09-25T13:35:04.305Z,101026.91
2022-09-25T13:37:34.790Z,101022.59
2022-09-25T13:40:33.927Z,101017.22
2022-09-25T13:43:21.668Z,101016.50
2022-09-25T13:45:50.398Z,101012.72
2022-09-25T13:48:37.669Z,101009.19
2022-09-25T13:51:35.838Z,101012.78
2022-09-25T13:54:24.350Z,101012.00
2022-09-25T13:56:53.389Z,101009.47
2022-09-25T13:59:38.977Z,101010.59
2022-09-25T14:02:43.947Z,101005.69
2022-09-25T14:05:18.186Z,101000.34
2022-09-25T14:07:52.021Z,101003.25
2022-09-25T14:10:20.560Z,101005.31
2022-09-25T14:12:50.172Z,101002.22
2022-09-25T14:15:25.086Z,101006.91
2022-09-25T14:17:55.955Z,101005.63
2022-09-25T14:20:43.231Z,101007.56
2022-09-25T14:23:17.520Z,101005.91
2022-09-25T14:25:47.105Z,101004.13
2022-09-25T14:28:25.336Z,101001.91
2022-09-25T14:31:10.149Z,101002.22
2022-09-25T14:33:55.842Z,101003.69
2022-09-25T14:36:35.648Z,101004.84
2022-09-25T14:39:37.384Z,100998.72
2022-09-25T14:42:25.532Z,101002.56
2022-09-25T14:45:29.201Z,100997.34
2022-09-25T14:48:01.099Z,100994.44
2022-09-25T14:50:32.658Z,100998.38
2022-09-25T14:53:04.849Z,100992.88
2022-09-25T14:55:37.931Z,100988.22
2022-09-25T14:58:10.303Z,100984.28
2022-09-25T15:00:46.966Z,100986.72
2022-09-25T15:03:16.621Z,100974.94
2022-09-25T15:05:47.725Z,100973.78
2022-09-25T15:08:22.603Z,100976.38
2022-09-25T15:11:02.334Z,100962.84
2022-09-25T15:13:33.702Z,100963.72
2022-09-25T15:16:20.520Z,100962.97
2022-09-25T15:18:59.189Z,100966.06
2022-09-25T15:21:30.961Z,100972.25
2022-09-25T15:24:03.187Z,100961.09
2022-09-25T15:26:35.320Z,100962.47
2022-09-25T15:29:03.301Z,100969.22
2022-09-25T15:31:39.202Z,100959.38
2022-09-25T15:34:13.748Z,100968.75
2022-09-25T15:36:41.739Z,100960.91
2022-09-25T15:39:17.058Z,100960.06
2022-09-25T15:41:46.427Z,100950.25
2022-09-25T15:44:19.063Z,100947.47
2022-09-25T15:46:49.962Z,100954.56
2022-09-25T15:49:21.101Z,100955.19
2022-09-25T15:51:53.646Z,100949.00
2022-09-25T15:54:31.706Z,100945.81
2022-09-25T15:57:02.845Z,100946.97
2022-09-25T15:59:34.820Z,100950.56
2022-09-25T16:02:35.530Z,100951.03
2022-09-25T16:05:03.892Z,100953.00
2022-09-25T16:07:34.276Z,100954.97
2022-09-25T16:10:05.455Z,100953.31
2022-09-25T16:12:40.760Z,100959.50
2022-09-25T16:15:44.786Z,100950.75
2022-09-25T16:18:28.563Z,100952.06
2022-09-25T16:21:08.650Z,100944.59
2022-09-25T16:23:38.486Z,100948.03
2022-09-25T16:26:19.765Z,100957.81
2022-09-25T16:29:03.149Z,100957.22
2022-09-25T16:31:32.732Z,100963.50
2022-09-25T16:34:01.263Z,100961.03
2022-09-25T16:36:38.120Z,100961.72
2022-09-25T16:39:24.794Z,100963.50
2022-09-25T16:41:53.206Z,100966.13
2022-09-25T16:44:28.690Z,100968.31
2022-09-25T16:47:14.371Z,100968.84
2022-09-25T16:49:43.666Z,100965.66
2022-09-25T16:52:20.573Z,100976.94
2022-09-25T16:54:53.118Z,100981.97
2022-09-25T16:57:22.538Z,100970.97
2022-09-25T16:59:52.577Z,100964.63
2022-09-25T17:02:32.888Z,100968.44
2022-09-25T17:05:03.126Z,100963.59
2022-09-25T17:07:31.000Z,100960.28
2022-09-25T17:10:01.010Z,100966.84
2022-09-25T17:12:31.886Z,100963.91
2022-09-25T17:15:01.434Z,100967.66
2022-09-25T17:17:31.002Z,100970.53
2022-09-25T17:19:58.970Z,100970.09
2022-09-25T17:22:30.306Z,100968.50
2022-09-25T17:25:02.032Z,100966.56
2022-09-25T17:27:29.775Z,100971.31
2022-09-25T17:29:58.183Z,100967.72
2022-09-25T17:32:29.322Z,100968.56
2022-09-25T17:34:58.484Z,100967.19
2022-09-25T17:37:26.383Z,100963.97
2022-09-25T17:39:54.406Z,100967.97
2022-09-25T17:42:22.529Z,100962.56
2022-09-25T17:44:50.468Z,100958.66
2022-09-25T17:47:18.514Z,100958.75
2022-09-25T17:49:48.559Z,100954.78
2022-09-25T17:52:21.965Z,100956.38
2022-09-25T17:54:49.809Z,100955.47
2022-09-25T17:57:17.794Z,100960.97
2022-09-25T17:59:45.798Z,100960.28
2022-09-25T18:02:37.416Z,100967.34
2022-09-25T18:05:07.608Z,100964.59
2022-09-25T18:07:35.653Z,100965.75
2022-09-25T18:10:03.550Z,100971.53
2022-09-25T18:12:31.334Z,100969.47
2022-09-25T18:14:59.520Z,100967.03
2022-09-25T18:17:27.445Z,100958.28
2022-09-25T18:20:12.726Z,100957.75
2022-09-25T18:22:41.971Z,100958.72
2022-09-25T18:25:10.715Z,100955.44
2022-09-25T18:27:41.850Z,100956.06
2022-09-25T18:30:15.107Z,100960.22
2022-09-25T18:32:44.318Z,100955.03
2022-09-25T18:35:14.346Z,100953.34
2022-09-25T18:37:44.338Z,100950.84
2022-09-25T18:40:14.226Z,100950.78
2022-09-25T18:42:42.262Z,100957.69
2022-09-25T18:45:13.032Z,100951.28
2022-09-25T18:47:42.374Z,100951.56
2022-09-25T18:50:15.523Z,100956.16
2022-09-25T18:52:47.449Z,100943.16
2022-09-25T18:55:15.378Z,100939.88
2022-09-25T18:57:43.787Z,100945.25
2022-09-25T19:00:13.086Z,100942.44
2022-09-25T19:02:42.499Z,100934.03
2022-09-25T19:05:11.450Z,100936.22
2022-09-25T19:07:39.660Z,100941.97
2022-09-25T19:10:11.022Z,100938.34
2022-09-25T19:12:38.860Z,100936.53
2022-09-25T19:15:07.388Z,100934.03
2022-09-25T19:17:36.819Z,100933.50
2022-09-25T19:20:05.552Z,100934.88
2022-09-25T19:22:33.766Z,100938.69
2022-09-25T19:25:03.950Z,100935.03
2022-09-25T19:27:33.478Z,100937.22
2022-09-25T19:30:01.251Z,100942.16
2022-09-25T19:32:29.199Z,100941.63
2022-09-25T19:34:57.464Z,100933.63
2022-09-25T19:37:29.692Z,100932.75
2022-09-25T19:40:15.106Z,100937.66
2022-09-25T19:42:44.821Z,100926.94
2022-09-25T19:45:14.000Z,100918.97
2022-09-25T19:47:41.834Z,100923.09
2022-09-25T19:50:10.757Z,100918.31
2022-09-25T19:52:38.664Z,100917.06
2022-09-25T19:55:07.330Z,100915.00
2022-09-25T19:57:35.138Z,100925.38
2022-09-25T20:00:05.879Z,100920.63
2022-09-25T20:02:33.789Z,100922.91
2022-09-25T20:05:01.651Z,100921.31
2022-09-25T20:07:29.604Z,100914.22
2022-09-25T20:09:57.498Z,100904.00
2022-09-25T20:12:25.478Z,100902.41
2022-09-25T20:14:53.686Z,100908.56
2022-09-25T20:17:22.869Z,100906.16
2022-09-25T20:19:50.722Z,100907.97
2022-09-25T20:22:18.506Z,100901.22
2022-09-25T20:24:47.120Z,100898.41
2022-09-25T20:27:15.699Z,100893.59
2022-09-25T20:29:45.634Z,100894.28
2022-09-25T20:32:13.545Z,100891.13
2022-09-25T20:34:42.923Z,100888.25
2022-09-25T20:37:10.928Z,100894.41
2022-09-25T20:39:39.017Z,100892.84
2022-09-25T20:42:08.954Z,100891.91
2022-09-25T20:44:37.018Z,100887.47
2022-09-25T20:47:04.816Z,100893.16
2022-09-25T20:49:32.994Z,100886.00
2022-09-25T20:52:02.517Z,100882.66
2022-09-25T20:54:30.442Z,100875.50
2022-09-25T20:56:58.413Z,100880.06
2022-09-25T20:59:26.325Z,100880.28
2022-09-25T21:01:54.209Z,100872.19
2022-09-25T21:04:22.189Z,100873.88
2022-09-25T21:06:50.161Z,100870.56
2022-09-25T21:09:22.774Z,100866.13
2022-09-25T21:11:50.865Z,100869.53
2022-09-25T21:14:20.876Z,100870.56
2022-09-25T21:16:49.980Z,100866.09
2022-09-25T21:19:21.023Z,100865.16
2022-09-25T21:21:49.541Z,100862.00
2022-09-25T21:24:21.214Z,100857.22
2022-09-25T21:26:49.770Z,100857.88
2022-09-25T21:29:20.435Z,100864.47
2022-09-25T21:31:50.681Z,100858.06
2022-09-25T21:34:19.984Z,100865.78
2022-09-25T21:36:48.494Z,100862.16
2022-09-25T21:39:16.425Z,100861.66
2022-09-25T21:41:45.736Z,100859.63
2022-09-25T21:44:15.649Z,100857.09
2022-09-25T21:46:44.181Z,100857.78
2022-09-25T21:49:17.066Z,100854.59
2022-09-25T21:51:46.089Z,100847.41
2022-09-25T21:54:14.495Z,100853.50
2022-09-25T21:56:43.273Z,100851.91
2022-09-25T21:59:12.874Z,100846.34
2022-09-25T22:01:41.603Z,100838.34
2022-09-25T22:04:12.880Z,100839.03
2022-09-25T22:06:43.174Z,100837.44
2022-09-25T22:09:13.558Z,100834.25
2022-09-25T22:11:42.611Z,100843.56
2022-09-25T22:14:16.083Z,100834.47
2022-09-25T22:16:45.342Z,100835.44
2022-09-25T22:19:15.754Z,100831.47
2022-09-25T22:21:47.877Z,100832.91
2022-09-25T22:24:16.070Z,100832.81
2022-09-25T22:26:47.218Z,100829.59
2022-09-25T22:29:17.327Z,100820.94
2022-09-25T22:31:45.541Z,100826.28
2022-09-25T22:34:19.934Z,100811.72
2022-09-25T22:36:47.826Z,100820.56
2022-09-25T22:39:17.845Z,100815.41
2022-09-25T22:41:46.203Z,100812.25
2022-09-25T22:44:14.218Z,100813.38
2022-09-25T22:46:43.376Z,100805.53
2022-09-25T22:49:11.269Z,100805.38
2022-09-25T22:51:39.713Z,100805.13
2022-09-25T22:54:08.204Z,100793.94
2022-09-25T22:56:36.931Z,100797.53
2022-09-25T22:59:07.140Z,100787.31
2022-09-25T23:01:37.851Z,100794.34
2022-09-25T23:04:12.311Z,100795.25
2022-09-25T23:06:40.164Z,100796.22
2022-09-25T23:09:11.617Z,100793.28
2022-09-25T23:11:39.636Z,100792.16
2022-09-25T23:14:10.091Z,100787.97
2022-09-25T23:16:38.401Z,100796.59
2022-09-25T23:19:07.596Z,100781.53
2022-09-25T23:21:35.424Z,100773.34
2022-09-25T23:24:06.203Z,100774.94
2022-09-25T23:26:35.409Z,100776.28
2022-09-25T23:29:03.188Z,100777.41
2022-09-25T23:31:31.974Z,100775.34
2022-09-25T23:34:00.271Z,100761.91
2022-09-25T23:36:30.240Z,100761.91
2022-09-25T23:39:00.775Z,100756.59
2022-09-25T23:41:31.179Z,100756.28
2022-09-25T23:44:00.634Z,100748.75
2022-09-25T23:46:31.374Z,100750.81
2022-09-25T23:48:59.486Z,100740.38
2022-09-25T23:51:27.380Z,100735.03
2022-09-25T23:53:58.681Z,100736.31
2022-09-25T23:56:28.589Z,100731.31
2022-09-25T23:58:57.894Z,100724.75
